This is the latest recevied weather packets stored in our database for station/object KN6ETB-1. If no packets are shown the sender has not sent any weather packets the latest 10 day(s).
| Time | Temp. | Humidity | Pressure | Rain* | Wind** | Luminosity | Snow |
|---|---|---|---|---|---|---|---|
| 1778099721 | 23.33° C | 56% | 1017 hPa | 0 mm | - | 814 W/m² | - |
| 1778099417 | 22.78° C | 57% | 1017.2 hPa | 0 mm | - | 825 W/m² | - |
| 1778099114 | 22.22° C | 60% | 1017 hPa | 0 mm | - | 910 W/m² | - |
| 1778098810 | 21.67° C | 60% | 1017.3 hPa | 0 mm | - | 362 W/m² | - |
| 1778098509 | 22.78° C | 58% | 1017.2 hPa | 0 mm | - | 422 W/m² | - |
| 1778098205 | 22.22° C | 57% | 1017.2 hPa | 0 mm | - | 596 W/m² | - |
| 1778097901 | 22.78° C | 58% | 1017.3 hPa | 0 mm | - | 610 W/m² | - |
| 1778097597 | 21.67° C | 58% | 1017.2 hPa | 0 mm | - | 714 W/m² | - |
| 1778097295 | 21.67° C | 60% | 1017.5 hPa | 0 mm | - | 483 W/m² | - |
| 1778096990 | 21.67° C | 60% | 1017.4 hPa | 0 mm | - | 449 W/m² | - |
| 1778096688 | 22.22° C | 59% | 1017.4 hPa | 0 mm | - | 385 W/m² | - |
| 1778096385 | 21.67° C | 62% | 1017.5 hPa | 0 mm | - | 436 W/m² | - |
| 1778096082 | 21.67° C | 62% | 1017.6 hPa | 0 mm | - | 363 W/m² | - |
| 1778095779 | 21.67° C | 63% | 1017.8 hPa | 0 mm | - | 367 W/m² | - |
| 1778095476 | 21.11° C | 63% | 1017.8 hPa | 0 mm | - | 395 W/m² | - |
| 1778095173 | 21.11° C | 60% | 1017.9 hPa | 0 mm | - | 407 W/m² | - |
| 1778094869 | 21.67° C | 61% | 1017.9 hPa | 0 mm | - | 367 W/m² | - |
| 1778094566 | 21.67° C | 62% | 1017.9 hPa | 0 mm | - | 344 W/m² | - |
| 1778094262 | 21.11° C | 67% | 1017.9 hPa | 0 mm | - | 511 W/m² | - |
| 1778093959 | 20.56° C | 66% | 1018 hPa | 0 mm | - | 384 W/m² | - |
| 1778093657 | 21.11° C | 66% | 1018.1 hPa | 0 mm | - | 290 W/m² | - |
| 1778093354 | 21.11° C | 67% | 1017.8 hPa | 0 mm | - | 366 W/m² | - |
| 1778093051 | 22.22° C | 64% | 1017.9 hPa | 0 mm | - | 281 W/m² | - |
| 1778092748 | 21.67° C | 65% | 1017.7 hPa | 0 mm | - | 842 W/m² | - |
| 1778092443 | 21.11° C | 66% | 1018 hPa | 0 mm | - | 854 W/m² | - |
* Rain latest hour (hover to see other rain measurements)
** Current wind speed in m/s (hover to see current wind gust speed)